Time;durP1;ratioP1;P1;durP2;ratioP2;P2;SDS_P1;SDS_P2;PMS_P1;PMS_P2;Temp;Humidity;BMP_temperature;BMP_pressure;BME280_temperature;BME280_humidity;BME280_pressure;Samples;Min_cycle;Max_cycle;Signal;HPM_P1;HPM_P2
2022/06/07 00:00:41;;;;;;;999.55;930.50;;;15.20;99.90;;;;;;5015220;28;20655;-69
2022/06/07 00:03:07;;;;;;;992.42;924.60;;;15.10;99.90;;;;;;5015258;28;20182;-69
2022/06/07 00:05:33;;;;;;;998.97;930.47;;;15.10;99.90;;;;;;5029503;28;20183;-69
2022/06/07 00:07:59;;;;;;;985.72;918.17;;;15.10;99.90;;;;;;5033453;28;20217;-69
2022/06/07 00:10:25;;;;;;;999.45;930.72;;;15.20;99.90;;;;;;5031543;28;20268;-69
2022/06/07 00:12:53;;;;;;;998.38;929.85;;;15.10;99.90;;;;;;5031480;28;20265;-69
2022/06/07 00:15:19;;;;;;;989.85;922.60;;;15.10;99.90;;;;;;5032470;28;20690;-69
2022/06/07 00:17:45;;;;;;;967.20;901.40;;;15.00;99.90;;;;;;5012807;28;20258;-69
2022/06/07 00:20:11;;;;;;;969.28;903.70;;;14.90;99.90;;;;;;5015281;28;20188;-70
2022/06/07 00:22:37;;;;;;;987.45;919.97;;;15.00;99.90;;;;;;5029138;28;20191;-70
2022/06/07 00:25:06;;;;;;;1028.43;955.85;;;14.90;99.90;;;;;;5031416;28;20249;-70
2022/06/07 00:27:32;;;;;;;1032.75;959.03;;;14.90;99.90;;;;;;5032335;28;20182;-69
2022/06/07 00:29:58;;;;;;;1074.05;992.13;;;15.00;99.90;;;;;;5045044;28;20213;-69
2022/06/07 00:32:24;;;;;;;1068.82;988.72;;;14.90;99.90;;;;;;5013921;28;20191;-69
2022/06/07 00:34:50;;;;;;;1074.43;992.63;;;14.80;99.90;;;;;;5039666;28;20190;-69
2022/06/07 00:37:16;;;;;;;1079.85;995.35;;;14.70;99.90;;;;;;5035037;28;20182;-69
2022/06/07 00:39:42;;;;;;;1088.82;998.08;;;14.70;99.90;;;;;;5033086;28;20194;-69
2022/06/07 00:42:09;;;;;;;1075.05;993.10;;;14.70;99.90;;;;;;5028602;28;20210;-69
2022/06/07 00:44:42;;;;;;;1078.43;994.40;;;14.70;99.90;;;;;;5020483;28;20185;-71
2022/06/07 00:47:20;;;;;;;1066.28;987.72;;;14.60;99.90;;;;;;5022840;28;20268;-70
2022/06/07 00:50:08;;;;;;;1053.63;977.72;;;14.60;99.90;;;;;;5030644;28;20217;-70
2022/06/07 00:52:35;;;;;;;1047.53;972.35;;;14.60;99.90;;;;;;5017404;28;21005;-69
2022/06/07 00:55:03;;;;;;;1102.55;999.90;;;14.70;99.90;;;;;;5029985;28;20202;-69
2022/06/07 00:57:28;;;;;;;1131.07;999.90;;;14.60;99.90;;;;;;5028414;28;20178;-70
2022/06/07 00:59:54;;;;;;;1157.22;999.90;;;14.70;99.90;;;;;;5020424;28;20555;-70
2022/06/07 01:02:21;;;;;;;1163.30;999.90;;;14.60;99.90;;;;;;5030991;28;20702;-70
2022/06/07 01:04:47;;;;;;;1178.47;999.90;;;14.60;99.90;;;;;;5027518;28;20538;-69
2022/06/07 01:12:41;;;;;;;1142.45;999.90;;;14.50;99.90;;;;;;5031076;28;20275;-70
2022/06/07 01:15:08;;;;;;;1174.43;999.90;;;14.50;99.90;;;;;;5029685;28;20695;-70
2022/06/07 01:17:34;;;;;;;1192.88;999.90;;;14.60;99.90;;;;;;5022739;28;20185;-69
2022/06/07 01:19:59;;;;;;;1211.70;999.90;;;14.60;99.90;;;;;;5016489;28;20261;-69
2022/06/07 01:22:26;;;;;;;1202.82;999.90;;;14.60;99.90;;;;;;5018589;28;20710;-70
2022/06/07 01:24:53;;;;;;;1203.10;999.90;;;14.70;99.90;;;;;;5033330;28;20265;-70
2022/06/07 01:27:19;;;;;;;1193.63;999.90;;;14.60;99.90;;;;;;5027641;28;20240;-70
2022/06/07 01:29:45;;;;;;;1184.20;999.90;;;14.60;99.90;;;;;;5044278;28;20360;-69
2022/06/07 01:32:12;;;;;;;1162.88;999.90;;;14.50;99.90;;;;;;5027744;28;20182;-70
2022/06/07 01:34:41;;;;;;;1160.60;999.90;;;14.40;99.90;;;;;;5030918;28;20554;-70
2022/06/07 01:37:08;;;;;;;1146.90;999.90;;;14.50;99.90;;;;;;5032278;28;20170;-69
2022/06/07 01:42:17;;;;;;;1232.22;999.90;;;14.50;99.90;;;;;;5019389;28;20238;-70
2022/06/07 01:44:47;;;;;;;1245.47;999.90;;;14.50;99.90;;;;;;5026512;28;20186;-70
2022/06/07 01:47:15;;;;;;;1253.72;999.90;;;14.50;99.90;;;;;;5045267;28;20205;-70
2022/06/07 01:49:41;;;;;;;1261.90;999.90;;;14.50;99.90;;;;;;5030672;28;20253;-69
2022/06/07 01:52:08;;;;;;;1256.90;999.90;;;14.60;99.90;;;;;;5028440;28;20178;-69
2022/06/07 01:54:34;;;;;;;1244.15;999.90;;;14.60;99.90;;;;;;5015453;28;20191;-69
2022/06/07 01:57:00;;;;;;;1221.82;999.90;;;14.50;99.90;;;;;;5010159;28;20273;-70
2022/06/07 01:59:26;;;;;;;1216.72;999.90;;;14.40;99.90;;;;;;5030790;28;20233;-70
2022/06/07 02:01:52;;;;;;;1223.13;999.90;;;14.30;99.90;;;;;;5023091;28;20659;-69
2022/06/07 02:04:20;;;;;;;1220.43;999.90;;;14.40;99.90;;;;;;5030371;28;20185;-70
2022/06/07 02:06:47;;;;;;;1220.25;999.90;;;14.30;99.90;;;;;;5014551;28;20316;-69
2022/06/07 02:09:12;;;;;;;1230.53;999.90;;;14.30;99.90;;;;;;5029932;28;20186;-70
2022/06/07 02:11:39;;;;;;;1240.68;999.90;;;14.40;99.90;;;;;;5031632;28;20183;-70
2022/06/07 02:14:05;;;;;;;1222.30;999.90;;;14.60;99.90;;;;;;5030500;28;20547;-71
2022/06/07 02:16:31;;;;;;;1224.05;999.90;;;14.60;99.90;;;;;;5024438;28;20186;-69
2022/06/07 02:18:57;;;;;;;1217.53;999.90;;;14.60;99.90;;;;;;5036568;28;20595;-70
2022/06/07 02:21:23;;;;;;;1210.78;999.90;;;14.40;99.90;;;;;;5022901;28;20180;-69
2022/06/07 02:23:50;;;;;;;1216.82;999.90;;;14.30;99.90;;;;;;5024934;28;20183;-69
2022/06/07 02:26:29;;;;;;;1219.43;999.90;;;14.20;99.90;;;;;;5021337;28;20191;-70
2022/06/07 02:29:15;;;;;;;1194.97;999.90;;;14.20;99.90;;;;;;5030512;28;20335;-70
2022/06/07 02:31:44;;;;;;;1188.28;999.90;;;14.40;99.90;;;;;;5034280;28;20191;-69
2022/06/07 02:34:15;;;;;;;1186.75;999.90;;;14.20;99.90;;;;;;5032253;28;20676;-70
2022/06/07 02:36:43;;;;;;;1198.35;999.90;;;14.00;99.90;;;;;;5024447;28;20225;-69
2022/06/07 02:39:08;;;;;;;1193.22;999.90;;;13.90;99.90;;;;;;5030130;28;20178;-70
2022/06/07 02:41:35;;;;;;;1192.55;999.90;;;13.90;99.90;;;;;;5043834;28;20182;-70
2022/06/07 02:44:01;;;;;;;1198.05;999.90;;;14.00;99.90;;;;;;5023672;28;20229;-70
2022/06/07 02:46:27;;;;;;;1190.07;999.90;;;14.00;99.90;;;;;;5026266;28;20260;-69
2022/06/07 02:48:53;;;;;;;1178.60;999.90;;;14.00;99.90;;;;;;5034928;28;20624;-69
2022/06/07 02:51:19;;;;;;;1168.38;999.90;;;13.90;99.90;;;;;;5027015;28;20218;-70
2022/06/07 02:53:45;;;;;;;1174.18;999.90;;;13.90;99.90;;;;;;5030312;28;20179;-69
2022/06/07 02:56:10;;;;;;;1175.63;999.90;;;13.80;99.90;;;;;;5028541;28;20648;-69
2022/06/07 02:58:36;;;;;;;1175.90;999.90;;;13.80;99.90;;;;;;5026852;28;20187;-70
2022/06/07 03:01:03;;;;;;;1182.25;999.90;;;13.90;99.90;;;;;;5033868;28;20619;-72
2022/06/07 03:03:28;;;;;;;1174.85;999.90;;;13.90;99.90;;;;;;5032271;28;20190;-69
2022/06/07 03:05:55;;;;;;;1169.35;999.90;;;14.00;99.90;;;;;;5022852;28;20187;-69
2022/06/07 03:08:22;;;;;;;1167.30;999.90;;;13.90;99.90;;;;;;5016671;28;20286;-69
2022/06/07 03:10:49;;;;;;;1155.20;999.90;;;13.90;99.90;;;;;;5030919;28;20212;-69
2022/06/07 03:13:16;;;;;;;1168.70;999.90;;;13.90;99.90;;;;;;5026387;28;20241;-69
2022/06/07 03:15:47;;;;;;;1166.43;999.90;;;13.80;99.90;;;;;;5015928;28;20183;-69
2022/06/07 03:18:12;;;;;;;1166.40;999.90;;;13.90;99.90;;;;;;5034100;28;20198;-69
2022/06/07 03:20:38;;;;;;;1139.00;999.90;;;13.80;99.90;;;;;;5028743;28;20187;-69
2022/06/07 03:23:04;;;;;;;1156.45;999.90;;;13.80;99.90;;;;;;5027429;28;20183;-69
2022/06/07 03:25:30;;;;;;;1156.95;999.90;;;13.90;99.90;;;;;;5025475;28;20258;-69
2022/06/07 03:27:56;;;;;;;1153.60;999.90;;;14.00;99.90;;;;;;5014346;28;20171;-70
2022/06/07 03:30:22;;;;;;;1173.35;999.90;;;14.10;99.90;;;;;;5021051;28;20229;-69
2022/06/07 03:32:47;;;;;;;1166.38;999.90;;;14.10;99.90;;;;;;5031815;28;20182;-69
2022/06/07 03:35:14;;;;;;;1156.47;999.90;;;14.10;99.90;;;;;;5028270;28;20230;-69
2022/06/07 03:37:40;;;;;;;1178.05;999.90;;;14.00;99.90;;;;;;5023970;28;20183;-69
2022/06/07 03:40:10;;;;;;;1169.25;999.90;;;14.10;99.90;;;;;;5043936;28;20190;-69
2022/06/07 03:42:36;;;;;;;1182.70;999.90;;;14.20;99.90;;;;;;5031485;28;20170;-70
2022/06/07 03:45:03;;;;;;;1179.18;999.90;;;14.30;99.90;;;;;;5040529;28;20175;-69
2022/06/07 03:47:28;;;;;;;1175.95;999.90;;;14.40;99.90;;;;;;5024393;28;20187;-69
2022/06/07 03:49:54;;;;;;;1169.20;999.90;;;14.30;99.90;;;;;;5026237;28;20230;-69
2022/06/07 03:52:20;;;;;;;1182.85;999.90;;;14.30;99.90;;;;;;5012825;28;20690;-69
2022/06/07 03:54:45;;;;;;;1184.93;999.90;;;14.20;99.90;;;;;;5032721;28;20204;-69
2022/06/07 03:57:12;;;;;;;1191.20;999.90;;;14.30;99.90;;;;;;5022662;28;20187;-69
2022/06/07 03:59:38;;;;;;;1190.03;999.90;;;14.40;99.90;;;;;;5021477;28;20218;-69
2022/06/07 04:02:05;;;;;;;1192.00;999.90;;;14.60;99.90;;;;;;5014584;28;20226;-69
2022/06/07 04:04:31;;;;;;;1199.68;999.90;;;14.70;99.90;;;;;;5024119;28;20191;-69
2022/06/07 04:09:41;;;;;;;1177.97;999.90;;;14.80;99.90;;;;;;5019905;28;20309;-69
2022/06/07 04:12:10;;;;;;;1185.28;999.90;;;14.90;99.90;;;;;;5036561;28;20179;-69
2022/06/07 04:14:40;;;;;;;1196.13;999.90;;;15.00;99.90;;;;;;5019100;28;20273;-69
2022/06/07 04:17:06;;;;;;;1185.30;999.90;;;15.00;99.90;;;;;;5025704;28;20203;-69
2022/06/07 04:19:36;;;;;;;1191.32;999.90;;;15.10;99.90;;;;;;5039443;28;20191;-69
2022/06/07 04:22:03;;;;;;;1190.75;999.90;;;15.10;99.90;;;;;;5024364;28;20174;-69
2022/06/07 04:24:28;;;;;;;1200.75;999.90;;;15.10;99.90;;;;;;5016510;28;20293;-69
2022/06/07 04:26:54;;;;;;;1187.60;999.90;;;15.20;99.90;;;;;;5007902;28;20683;-69
2022/06/07 04:29:20;;;;;;;1197.55;999.90;;;15.20;99.90;;;;;;5030692;28;20233;-69
2022/06/07 04:31:46;;;;;;;1187.03;999.90;;;15.20;99.90;;;;;;5027594;28;20211;-69
2022/06/07 04:34:11;;;;;;;1197.97;999.90;;;15.30;99.90;;;;;;5032323;28;20178;-69
2022/06/07 04:36:40;;;;;;;1182.13;999.90;;;15.30;99.90;;;;;;5031854;28;20187;-69
2022/06/07 04:39:07;;;;;;;1174.90;999.90;;;15.20;99.90;;;;;;5046358;28;20174;-69
2022/06/07 04:41:33;;;;;;;1194.72;999.90;;;15.20;99.90;;;;;;5032117;28;20179;-69
2022/06/07 04:43:59;;;;;;;1191.35;999.90;;;15.30;99.90;;;;;;5030667;28;20640;-69
2022/06/07 04:46:26;;;;;;;1200.45;999.90;;;15.30;99.90;;;;;;5025304;28;20205;-69
2022/06/07 04:48:53;;;;;;;1212.18;999.90;;;15.50;99.90;;;;;;5032143;28;20191;-69
2022/06/07 04:51:28;;;;;;;1216.63;999.90;;;15.70;99.90;;;;;;5027206;28;20214;-69
2022/06/07 04:53:56;;;;;;;1210.88;999.90;;;15.90;99.90;;;;;;5029935;28;20185;-69
2022/06/07 04:56:24;;;;;;;1205.25;999.90;;;16.10;99.90;;;;;;5012324;28;20241;-69
2022/06/07 04:58:51;;;;;;;1191.72;999.90;;;16.20;99.90;;;;;;5030507;28;20214;-69
2022/06/07 05:01:20;;;;;;;1173.07;999.90;;;16.30;99.90;;;;;;5012468;28;20194;-69
2022/06/07 05:03:46;;;;;;;1152.18;999.90;;;16.40;99.90;;;;;;5028619;28;20179;-69
2022/06/07 05:06:30;;;;;;;1162.47;999.90;;;16.40;99.90;;;;;;5036298;28;20637;-70
2022/06/07 05:08:59;;;;;;;1160.45;999.90;;;16.50;99.90;;;;;;5031260;28;20173;-69
2022/06/07 05:11:26;;;;;;;1150.28;999.90;;;16.40;99.90;;;;;;5046430;28;20297;-69
2022/06/07 05:13:54;;;;;;;1166.72;999.90;;;16.30;99.90;;;;;;5047061;28;20673;-69
2022/06/07 05:16:20;;;;;;;1218.43;999.90;;;16.40;99.90;;;;;;5023825;28;20252;-69
2022/06/07 05:18:52;;;;;;;1241.50;999.90;;;16.80;99.90;;;;;;5037017;28;20207;-69
2022/06/07 05:21:19;;;;;;;1230.47;999.90;;;17.00;99.90;;;;;;5029167;28;20264;-69
2022/06/07 05:23:44;;;;;;;1200.45;999.90;;;17.00;99.90;;;;;;5026988;28;20261;-69
2022/06/07 05:26:37;;;;;;;1167.25;999.90;;;16.90;99.90;;;;;;5021958;28;20183;-69
2022/06/07 05:29:04;;;;;;;1108.68;999.90;;;17.10;99.90;;;;;;5028291;28;20171;-69
2022/06/07 05:31:30;;;;;;;1080.75;997.33;;;17.20;99.90;;;;;;5002716;28;20218;-69
2022/06/07 05:33:56;;;;;;;1080.85;997.90;;;17.40;99.90;;;;;;5021089;28;20197;-69
2022/06/07 05:36:22;;;;;;;1076.55;995.55;;;17.30;99.90;;;;;;5025238;28;20546;-69
2022/06/07 05:38:49;;;;;;;1042.07;969.67;;;17.40;99.90;;;;;;5011362;28;20274;-69
2022/06/07 05:41:20;;;;;;;921.83;862.25;;;17.40;99.90;;;;;;5025387;28;20200;-69
2022/06/07 05:43:45;;;;;;;866.92;812.92;;;17.50;99.90;;;;;;5031810;28;20594;-69
2022/06/07 05:46:11;;;;;;;832.78;782.13;;;17.50;99.90;;;;;;5029011;28;20197;-69
2022/06/07 05:48:37;;;;;;;815.15;766.08;;;17.40;99.90;;;;;;5019448;28;20512;-70
2022/06/07 05:51:03;;;;;;;792.90;745.60;;;17.30;99.90;;;;;;5022713;28;20207;-69
2022/06/07 05:53:29;;;;;;;735.05;693.40;;;17.40;99.90;;;;;;5034047;28;20285;-69
2022/06/07 05:55:56;;;;;;;664.88;629.83;;;17.40;99.90;;;;;;5024797;28;20635;-73
2022/06/07 05:58:23;;;;;;;651.85;616.92;;;17.30;99.90;;;;;;5018080;28;20547;-70
2022/06/07 06:00:48;;;;;;;640.20;607.15;;;17.40;99.90;;;;;;5012375;28;20601;-70
2022/06/07 06:03:15;;;;;;;587.30;558.78;;;17.50;99.90;;;;;;5037704;28;20187;-72
2022/06/07 06:05:45;;;;;;;628.30;596.03;;;17.50;99.90;;;;;;5031600;28;20186;-72
2022/06/07 06:11:13;;;;;;;615.28;583.83;;;17.60;99.90;;;;;;5028758;28;20226;-71
2022/06/07 06:13:39;;;;;;;648.25;613.83;;;17.70;99.90;;;;;;5023476;28;20699;-69
2022/06/07 06:16:09;;;;;;;687.90;649.92;;;17.70;99.90;;;;;;5027439;28;20282;-69
2022/06/07 06:18:35;;;;;;;700.78;661.58;;;17.60;99.90;;;;;;5022945;28;20186;-71
2022/06/07 06:21:00;;;;;;;710.90;670.88;;;17.70;99.90;;;;;;5014559;28;20278;-69
2022/06/07 06:23:26;;;;;;;717.38;677.22;;;17.90;99.90;;;;;;5005730;28;20336;-70
2022/06/07 06:25:52;;;;;;;717.75;677.58;;;18.20;99.90;;;;;;5029427;28;20233;-72
2022/06/07 06:28:18;;;;;;;653.03;619.03;;;18.40;99.90;;;;;;5031265;28;20191;-72
2022/06/07 06:30:45;;;;;;;586.92;558.05;;;18.50;99.90;;;;;;5039573;28;20227;-70
2022/06/07 06:33:14;;;;;;;644.67;611.08;;;18.70;99.90;;;;;;5023832;28;20187;-69
2022/06/07 06:35:47;;;;;;;601.08;571.53;;;18.90;99.90;;;;;;5022438;28;20183;-70
2022/06/07 06:38:13;;;;;;;558.95;532.45;;;18.90;99.90;;;;;;5029786;28;20186;-70
2022/06/07 06:40:39;;;;;;;594.50;565.13;;;19.00;99.90;;;;;;5028910;28;20179;-69
2022/06/07 06:43:05;;;;;;;514.42;490.40;;;19.20;99.90;;;;;;5024823;28;20552;-69
2022/06/07 06:45:30;;;;;;;561.40;534.22;;;19.40;99.90;;;;;;5028530;28;20176;-69
2022/06/07 06:47:56;;;;;;;545.28;519.67;;;19.40;99.90;;;;;;5020295;28;20184;-70
2022/06/07 06:50:22;;;;;;;541.63;516.20;;;19.40;99.90;;;;;;5030500;28;20218;-69
2022/06/07 06:52:47;;;;;;;553.65;527.35;;;19.50;99.90;;;;;;5020949;28;20656;-69
2022/06/07 06:55:13;;;;;;;465.77;445.63;;;19.50;99.90;;;;;;5022485;28;20294;-71
2022/06/07 06:57:40;;;;;;;485.48;464.00;;;19.40;99.90;;;;;;5018578;28;20202;-69
2022/06/07 07:00:08;;;;;;;517.75;493.70;;;19.40;99.90;;;;;;5016470;28;20183;-69
2022/06/07 07:02:34;;;;;;;511.83;488.02;;;19.40;99.90;;;;;;5031728;28;20198;-71
2022/06/07 07:05:00;;;;;;;457.35;437.58;;;19.30;99.90;;;;;;5022461;28;20542;-71
2022/06/07 07:07:26;;;;;;;453.95;433.85;;;19.30;99.90;;;;;;5013634;28;20183;-71
2022/06/07 07:09:55;;;;;;;413.15;396.02;;;19.40;99.90;;;;;;5029587;28;20221;-70
2022/06/07 07:12:21;;;;;;;362.60;348.23;;;19.60;99.90;;;;;;5019073;28;20270;-72
2022/06/07 07:14:48;;;;;;;316.05;303.90;;;19.90;99.90;;;;;;5025334;28;20213;-71
2022/06/07 07:17:14;;;;;;;270.85;260.77;;;20.20;99.90;;;;;;5028759;28;20190;-70
2022/06/07 07:19:39;;;;;;;314.67;302.33;;;20.30;99.90;;;;;;5029876;28;20229;-70
2022/06/07 07:22:05;;;;;;;264.20;254.30;;;20.70;99.90;;;;;;5025543;28;20641;-72
2022/06/07 07:24:32;;;;;;;215.07;207.25;;;20.80;99.90;;;;;;5049000;28;20198;-71
2022/06/07 07:26:58;;;;;;;193.70;186.55;;;21.40;99.90;;;;;;5035381;28;20652;-71
2022/06/07 07:29:25;;;;;;;74.43;71.72;;;21.70;99.90;;;;;;5033292;28;20518;-71
2022/06/07 07:31:50;;;;;;;140.20;134.02;;;21.70;99.90;;;;;;5034393;28;20214;-72
2022/06/07 07:34:17;;;;;;;148.38;141.75;;;21.80;99.90;;;;;;5029728;28;20623;-70
2022/06/07 07:36:51;;;;;;;205.25;196.13;;;21.90;99.90;;;;;;5023223;28;20485;-70
2022/06/07 07:39:17;;;;;;;275.13;263.30;;;21.80;99.90;;;;;;5031149;28;20288;-70
2022/06/07 07:41:45;;;;;;;295.20;282.33;;;21.90;99.90;;;;;;5019878;28;20271;-71
2022/06/07 07:44:13;;;;;;;541.08;515.75;;;21.80;99.90;;;;;;5025744;28;20176;-70
2022/06/07 07:46:40;;;;;;;596.55;567.95;;;21.80;99.90;;;;;;4999960;28;20179;-70
2022/06/07 07:49:07;;;;;;;635.63;604.35;;;21.60;99.90;;;;;;5033061;28;20182;-70
2022/06/07 07:51:41;;;;;;;602.78;573.67;;;21.50;99.90;;;;;;5021655;28;20250;-71
2022/06/07 07:54:09;;;;;;;583.03;555.20;;;21.60;99.90;;;;;;5033432;28;20271;-72
2022/06/07 07:56:36;;;;;;;564.95;537.67;;;21.90;99.90;;;;;;5014869;28;20187;-74
2022/06/07 07:59:03;;;;;;;567.25;540.20;;;22.10;99.90;;;;;;5028625;28;20182;-70
2022/06/07 08:01:29;;;;;;;624.70;593.50;;;22.20;99.90;;;;;;5019292;28;20198;-70
2022/06/07 08:03:57;;;;;;;575.67;548.08;;;22.40;99.90;;;;;;5015035;28;20262;-70
2022/06/07 08:06:26;;;;;;;472.90;450.67;;;22.40;99.90;;;;;;5015687;28;20227;-71
2022/06/07 08:08:54;;;;;;;451.40;430.50;;;22.10;99.90;;;;;;5022638;28;20223;-70
2022/06/07 08:11:22;;;;;;;519.95;495.58;;;21.80;99.90;;;;;;5026186;28;20305;-71
2022/06/07 08:13:48;;;;;;;522.40;497.80;;;21.90;99.90;;;;;;5019547;28;20203;-71
2022/06/07 08:16:14;;;;;;;529.67;504.85;;;21.90;99.90;;;;;;5029816;28;20250;-70
2022/06/07 08:18:41;;;;;;;514.30;489.80;;;21.90;99.90;;;;;;5031657;28;20194;-71
2022/06/07 08:21:11;;;;;;;514.15;490.02;;;22.00;99.90;;;;;;5019917;28;20185;-70
2022/06/07 08:23:37;;;;;;;490.42;467.13;;;21.90;99.90;;;;;;5021115;28;20309;-71
2022/06/07 08:26:05;;;;;;;428.05;407.80;;;21.70;99.90;;;;;;5022823;28;20534;-71
2022/06/07 08:28:31;;;;;;;373.48;356.42;;;21.60;99.90;;;;;;5027057;28;20182;-71
2022/06/07 08:30:58;;;;;;;308.40;294.05;;;21.70;99.90;;;;;;5006343;28;20253;-71
2022/06/07 08:38:59;;;;;;;359.77;343.45;;;22.50;99.90;;;;;;5031764;28;20186;-71
2022/06/07 08:41:31;;;;;;;326.02;311.33;;;22.30;99.90;;;;;;5023713;28;20237;-71
2022/06/07 08:44:08;;;;;;;306.85;293.08;;;22.40;99.90;;;;;;5028176;28;20206;-71
2022/06/07 08:46:36;;;;;;;285.10;272.05;;;22.40;99.90;;;;;;5026934;28;20771;-71
2022/06/07 08:49:03;;;;;;;241.38;230.00;;;22.40;99.90;;;;;;5026047;28;20557;-71
2022/06/07 08:51:38;;;;;;;293.08;280.00;;;22.60;99.90;;;;;;5027214;28;20214;-71
2022/06/07 08:54:20;;;;;;;446.40;426.05;;;22.10;99.90;;;;;;5032052;28;20174;-70
2022/06/07 08:56:47;;;;;;;403.27;384.67;;;21.70;99.90;;;;;;5029554;28;20306;-71
2022/06/07 08:59:17;;;;;;;362.88;346.48;;;21.50;99.90;;;;;;5027352;28;20192;-70
2022/06/07 09:02:07;;;;;;;384.23;366.17;;;21.20;99.90;;;;;;5026284;28;20207;-70
2022/06/07 09:04:39;;;;;;;354.25;337.45;;;21.20;99.90;;;;;;5013338;28;20383;-71
2022/06/07 09:07:17;;;;;;;267.67;255.02;;;21.30;99.90;;;;;;5021524;28;20218;-70
2022/06/07 09:12:33;;;;;;;166.57;159.05;;;21.80;99.90;;;;;;5023119;28;20191;-71
2022/06/07 09:15:14;;;;;;;178.23;170.40;;;21.60;99.90;;;;;;5025395;28;20210;-71
2022/06/07 09:17:46;;;;;;;284.92;272.60;;;21.40;99.90;;;;;;5029507;28;20218;-70
2022/06/07 09:20:31;;;;;;;378.45;361.65;;;21.10;99.90;;;;;;5014645;28;20583;-70
2022/06/07 09:23:04;;;;;;;372.08;355.88;;;21.00;99.90;;;;;;5028299;28;20535;-70
2022/06/07 09:25:39;;;;;;;380.17;363.85;;;21.10;99.90;;;;;;5032632;28;20530;-70
2022/06/07 09:28:11;;;;;;;320.48;307.20;;;21.20;99.90;;;;;;5020197;28;20180;-70
2022/06/07 09:30:43;;;;;;;257.67;247.27;;;21.30;99.90;;;;;;5041048;28;20230;-70
2022/06/07 09:33:26;;;;;;;247.43;236.95;;;21.30;99.90;;;;;;5031951;28;20219;-70
2022/06/07 09:36:21;;;;;;;457.30;435.33;;;21.30;99.90;;;;;;5038827;28;20174;-70
2022/06/07 09:38:51;;;;;;;676.03;637.60;;;20.90;99.90;;;;;;5030439;28;20194;-70
2022/06/07 09:41:38;;;;;;;922.90;859.88;;;20.70;99.90;;;;;;5041770;28;20182;-70
2022/06/07 09:44:24;;;;;;;1087.30;996.70;;;20.60;99.90;;;;;;5046842;28;20614;-71
2022/06/07 09:47:03;;;;;;;1195.28;999.90;;;20.50;99.90;;;;;;5047330;28;20186;-71
2022/06/07 09:49:40;;;;;;;1276.20;999.90;;;20.50;99.90;;;;;;5047002;28;20184;-70
2022/06/07 09:52:24;;;;;;;1285.18;999.90;;;20.60;99.90;;;;;;5031882;28;20184;-70
2022/06/07 09:54:57;;;;;;;1243.47;999.90;;;20.60;99.90;;;;;;5038576;28;20633;-70
2022/06/07 09:57:37;;;;;;;1234.70;999.90;;;20.00;99.90;;;;;;5023945;28;20535;-70
2022/06/07 10:00:24;;;;;;;1249.68;999.90;;;19.90;99.90;;;;;;5044579;28;20183;-70
2022/06/07 10:03:04;;;;;;;1155.63;999.90;;;19.90;99.90;;;;;;5030072;28;20240;-70
2022/06/07 10:05:54;;;;;;;1093.88;997.55;;;19.80;99.90;;;;;;5027109;28;20189;-71
2022/06/07 10:08:38;;;;;;;1108.07;997.78;;;19.90;99.90;;;;;;5029674;28;20189;-70
2022/06/07 10:11:18;;;;;;;1164.60;999.90;;;19.70;99.90;;;;;;5031468;28;20199;-69
2022/06/07 10:13:53;;;;;;;1491.63;999.90;;;19.20;99.90;;;;;;5038405;28;20179;-70
2022/06/07 10:16:30;;;;;;;1649.40;999.90;;;18.90;99.90;;;;;;5031379;28;20182;-70
2022/06/07 10:19:17;;;;;;;1683.07;999.90;;;19.10;99.90;;;;;;5025376;28;20213;-70
2022/06/07 10:22:04;;;;;;;1680.32;999.90;;;19.10;99.90;;;;;;5032999;28;20190;-70
2022/06/07 10:24:48;;;;;;;1705.78;999.90;;;19.40;99.90;;;;;;5019939;28;20213;-70
2022/06/07 10:27:38;;;;;;;1617.78;999.90;;;19.60;99.90;;;;;;5016437;28;20230;-70
2022/06/07 10:30:38;;;;;;;1633.25;999.90;;;19.60;99.90;;;;;;5032555;28;20298;-70
2022/06/07 10:33:21;;;;;;;1641.22;999.90;;;19.60;99.90;;;;;;5010824;28;20188;-70
2022/06/07 10:36:28;;;;;;;1608.95;999.90;;;19.60;99.90;;;;;;5027340;28;20183;-70
2022/06/07 10:39:06;;;;;;;1526.00;999.90;;;19.90;99.90;;;;;;5049796;28;20650;-69
2022/06/07 10:41:51;;;;;;;1484.70;999.90;;;20.20;99.90;;;;;;5022741;28;20178;-70
2022/06/07 10:44:34;;;;;;;1547.72;999.90;;;19.90;99.90;;;;;;5036073;28;20631;-69
2022/06/07 10:47:14;;;;;;;1592.13;999.90;;;19.80;99.90;;;;;;5028896;28;20185;-69
2022/06/07 10:49:48;;;;;;;1644.55;999.90;;;19.80;99.90;;;;;;5020272;28;20181;-70
2022/06/07 10:52:44;;;;;;;1627.05;999.90;;;19.80;99.90;;;;;;5034500;28;20170;-69
2022/06/07 10:55:09;;;;;;;1561.30;999.90;;;19.80;99.90;;;;;;5024606;28;20191;-71
2022/06/07 10:57:51;;;;;;;1431.55;999.90;;;19.80;99.90;;;;;;5039668;28;20644;-70
2022/06/07 11:00:45;;;;;;;1507.45;999.90;;;19.70;99.90;;;;;;5021380;28;20191;-70
2022/06/07 11:03:43;;;;;;;1603.20;999.90;;;19.70;99.90;;;;;;5020346;28;20662;-69
2022/06/07 11:09:38;;;;;;;1541.03;999.90;;;19.50;99.90;;;;;;5019066;28;20194;-70
2022/06/07 11:12:24;;;;;;;1539.43;999.90;;;19.50;99.90;;;;;;5049114;28;20190;-69
2022/06/07 11:15:03;;;;;;;1575.13;999.90;;;19.30;99.90;;;;;;5034821;28;20628;-69
2022/06/07 11:17:37;;;;;;;1601.20;999.90;;;19.40;99.90;;;;;;5034762;28;20185;-74
2022/06/07 11:20:17;;;;;;;1565.70;999.90;;;19.50;99.90;;;;;;5034050;28;20260;-70
2022/06/07 11:23:02;;;;;;;1569.50;999.90;;;19.40;99.90;;;;;;5034233;28;20179;-70
2022/06/07 11:25:41;;;;;;;1539.25;999.90;;;19.30;99.90;;;;;;5025976;28;20188;-70
2022/06/07 11:28:14;;;;;;;1529.10;999.90;;;19.30;99.90;;;;;;5044110;28;20174;-70
2022/06/07 11:30:43;;;;;;;1567.75;999.90;;;19.30;99.90;;;;;;5033197;28;20725;-70
2022/06/07 11:33:38;;;;;;;1534.75;999.90;;;19.40;99.90;;;;;;5034038;28;20249;-70
2022/06/07 11:36:06;;;;;;;1550.35;999.90;;;19.70;99.90;;;;;;5034004;28;20274;-70
2022/06/07 11:38:35;;;;;;;1579.28;999.90;;;19.80;99.90;;;;;;5038539;28;20206;-70
2022/06/07 11:41:37;;;;;;;1751.68;999.90;;;19.80;99.90;;;;;;5027860;28;20207;-70
2022/06/07 11:44:11;;;;;;;1719.30;999.90;;;19.80;99.90;;;;;;5028500;28;20186;-71
2022/06/07 11:46:49;;;;;;;1706.78;999.90;;;20.00;99.90;;;;;;5026364;28;20257;-70
2022/06/07 11:49:19;;;;;;;1692.72;999.90;;;20.40;99.90;;;;;;5028589;28;20182;-70
2022/06/07 11:51:57;;;;;;;1601.93;999.90;;;20.70;99.90;;;;;;5026408;28;20562;-70
2022/06/07 11:54:33;;;;;;;1540.00;999.90;;;20.90;99.90;;;;;;5019752;28;20551;-71
2022/06/07 11:57:21;;;;;;;1488.68;999.90;;;20.90;99.90;;;;;;5033611;28;20181;-70
2022/06/07 11:59:53;;;;;;;1438.07;999.90;;;21.10;99.90;;;;;;5031904;28;20179;-70
2022/06/07 12:02:26;;;;;;;1471.68;999.90;;;21.20;99.90;;;;;;5033951;28;20202;-70
2022/06/07 12:05:17;;;;;;;1430.70;999.90;;;21.50;99.90;;;;;;5031850;28;20698;-70
2022/06/07 12:07:50;;;;;;;1390.60;999.90;;;21.70;99.90;;;;;;5033230;28;20221;-70
2022/06/07 12:10:18;;;;;;;1394.00;999.90;;;21.70;99.90;;;;;;5025953;28;20219;-70
2022/06/07 12:13:12;;;;;;;1371.85;999.90;;;21.70;99.90;;;;;;5032973;28;20248;-70
2022/06/07 12:15:48;;;;;;;1364.03;999.90;;;21.70;99.90;;;;;;5032491;28;20268;-70
2022/06/07 12:18:19;;;;;;;1354.90;999.90;;;22.00;99.90;;;;;;5039231;28;20196;-70
2022/06/07 12:20:53;;;;;;;1296.90;999.90;;;22.20;99.90;;;;;;5029284;28;20273;-70
2022/06/07 12:23:41;;;;;;;1300.47;999.90;;;22.20;99.90;;;;;;5024364;28;20180;-71
2022/06/07 12:26:17;;;;;;;1300.35;999.90;;;22.20;99.90;;;;;;5013431;28;20215;-70
2022/06/07 12:28:55;;;;;;;1293.70;999.90;;;22.30;99.90;;;;;;5045315;28;20175;-70
2022/06/07 12:31:43;;;;;;;1298.30;999.90;;;22.50;99.90;;;;;;5033012;28;20300;-70
2022/06/07 12:34:23;;;;;;;1287.68;999.90;;;22.50;99.90;;;;;;5028303;28;20194;-70
2022/06/07 12:37:01;;;;;;;1259.28;999.90;;;22.40;99.90;;;;;;5024277;28;20182;-70
2022/06/07 12:39:28;;;;;;;1265.97;999.90;;;22.10;99.90;;;;;;5032057;28;20527;-70
2022/06/07 12:42:08;;;;;;;1265.63;999.90;;;22.10;99.90;;;;;;5048299;28;20646;-70
2022/06/07 12:44:40;;;;;;;1286.20;999.90;;;21.90;99.90;;;;;;5031233;28;20182;-70
2022/06/07 12:47:27;;;;;;;1284.38;999.90;;;22.10;99.90;;;;;;5033003;28;20567;-70